»·PEaware :: N5268J KSMX-KBFL

N5268J :: KSMX-KBFL

FLIGHT INFORMATION

Flight Status: Arrived
Operator: Privately registered:
United States
More flights under this callsign
Pilot: John P. (31881)
Aircraft: BEECH AIRCRAFT BONANZA
(BE36)
More flights by this aircraft type
Origin: KSMX Santa Maria Pub/Capt Hancock
United States
Destination: KBFL Meadows
United States
More flights between these airports :: More routes between these airports
Route: SMX FLW BFL
File this flight plan on PilotEdge
Remarks:
Altitude:
(Current/Filed)
7,500ft
Speed:
(Current/Filed)
167kts
Departed: 17-Oct-20 07:33 AM
Arrived: 17-Oct-20 08:08 AM
Distance/Time
Traveled:
76nm/0:34
Distance/Time
To Go:
Arrived

Flight Plot

Page will automatically refresh every two minutes.

Flight plan parsing failed; only flown route is shown


Map Options




Map Legend


Flown Route
Filed Route
Departure Airport
Arrival Airport
Navaid (VOR, NDB)
Fix

Horizontal Profiles

Position Reports

Time Latitude Longitude Heading Altitude Ground
Speed
17-Oct-20 07:11 0.000408 0.013975 359 3ft 0kts
17-Oct-20 07:12 34.898003 -120.447844 55 228ft 0kts
17-Oct-20 07:13 34.898003 -120.447844 55 251ft 0kts
17-Oct-20 07:14 34.898003 -120.447844 55 251ft 0kts
17-Oct-20 07:15 34.898003 -120.447844 55 251ft 0kts
17-Oct-20 07:16 34.898003 -120.447844 55 251ft 0kts
17-Oct-20 07:17 34.898003 -120.447844 55 251ft 0kts
17-Oct-20 07:18 34.898003 -120.447844 55 251ft 0kts
17-Oct-20 07:19 34.898003 -120.447844 55 251ft 0kts
17-Oct-20 07:20 34.898003 -120.447844 55 251ft 0kts
17-Oct-20 07:21 34.898003 -120.447844 55 251ft 0kts
17-Oct-20 07:22 34.898003 -120.447844 55 251ft 0kts
17-Oct-20 07:23 34.898003 -120.447844 55 251ft 0kts
17-Oct-20 07:24 34.898003 -120.447844 55 251ft 0kts
17-Oct-20 07:25 34.898003 -120.447844 55 251ft 0kts
17-Oct-20 07:26 34.898003 -120.447844 55 251ft 0kts
17-Oct-20 07:27 34.898003 -120.447844 55 251ft 0kts
17-Oct-20 07:28 34.897979 -120.448490 214 251ft 10kts
17-Oct-20 07:29 34.895196 -120.446358 144 259ft 11kts
17-Oct-20 07:30 34.893790 -120.445694 181 262ft 0kts
17-Oct-20 07:31 34.893585 -120.446952 314 263ft 30kts
17-Oct-20 07:32 34.914460 -120.464341 16 901ft 107kts
17-Oct-20 07:33 34.914074 -120.435468 112 2208ft 102kts
17-Oct-20 07:34 34.918618 -120.401651 70 3147ft 104kts
17-Oct-20 07:35 34.929382 -120.368475 67 4121ft 106kts
17-Oct-20 07:36 34.940606 -120.334642 66 5190ft 109kts
17-Oct-20 07:37 34.952022 -120.299768 66 6178ft 112kts
17-Oct-20 07:38 34.963776 -120.263781 66 7218ft 115kts
17-Oct-20 07:39 34.977711 -120.221091 66 7495ft 155kts
17-Oct-20 07:40 34.994455 -120.169789 66 7515ft 168kts
17-Oct-20 07:41 35.011749 -120.116681 66 7522ft 169kts
17-Oct-20 07:42 35.028968 -120.063691 66 7516ft 166kts
17-Oct-20 07:43 35.046093 -120.010922 66 7511ft 166kts
17-Oct-20 07:44 35.062961 -119.958816 66 7516ft 165kts
17-Oct-20 07:45 35.079852 -119.906563 66 7517ft 165kts
17-Oct-20 07:46 35.097499 -119.854743 61 7512ft 165kts
17-Oct-20 07:47 35.118670 -119.805469 60 7522ft 165kts
17-Oct-20 07:48 35.139917 -119.755535 60 7521ft 165kts
17-Oct-20 07:49 35.161374 -119.704939 60 6913ft 157kts
17-Oct-20 07:50 35.179170 -119.663053 61 5939ft 128kts
17-Oct-20 07:51 35.194049 -119.627923 60 5530ft 99kts
17-Oct-20 07:52 35.204770 -119.602592 61 5349ft 75kts
17-Oct-20 07:53 35.214423 -119.579777 60 5413ft 78kts
17-Oct-20 07:54 35.225853 -119.552584 61 5889ft 119kts
17-Oct-20 07:55 35.233090 -119.507504 86 5995ft 154kts
17-Oct-20 07:56 35.245871 -119.456659 70 5533ft 156kts
17-Oct-20 07:57 35.263366 -119.410164 58 5434ft 144kts
17-Oct-20 07:58 35.287388 -119.372246 58 5513ft 142kts
17-Oct-20 07:59 35.300469 -119.325129 71 5245ft 156kts
17-Oct-20 08:00 35.314625 -119.281014 61 4287ft 136kts
17-Oct-20 08:01 35.328997 -119.240371 71 3371ft 127kts
17-Oct-20 08:02 35.341249 -119.198536 65 2904ft 123kts
17-Oct-20 08:03 35.357708 -119.149748 73 2150ft 156kts
17-Oct-20 08:04 35.370456 -119.099873 73 1723ft 164kts
17-Oct-20 08:05 35.398526 -119.060926 32 2203ft 169kts
17-Oct-20 08:06 35.426238 -119.047291 310 624ft 105kts
17-Oct-20 08:07 35.436269 -119.057735 69 494ft 0kts
17-Oct-20 08:08 35.436269 -119.057735 69 494ft 0kts
17-Oct-20 08:09 35.436269 -119.057735 69 494ft 0kts
17-Oct-20 08:11 35.437120 -119.055905 325 494ft 17kts
17-Oct-20 08:12 35.437542 -119.056039 33 495ft 0kts
17-Oct-20 08:13 35.437542 -119.056039 33 495ft 0kts
17-Oct-20 08:14 35.437542 -119.056039 33 495ft 0kts
17-Oct-20 08:15 35.437542 -119.056039 33 495ft 0kts
17-Oct-20 08:16 35.437542 -119.056039 33 495ft 0kts
17-Oct-20 08:17 35.437542 -119.056039 33 495ft 0kts
17-Oct-20 08:18 35.437542 -119.056039 33 495ft 0kts
17-Oct-20 08:19 35.437542 -119.056039 33 495ft 0kts
17-Oct-20 08:20 35.437542 -119.056039 33 495ft 0kts
17-Oct-20 08:21 35.437542 -119.056039 33 495ft 0kts
17-Oct-20 08:22 35.437542 -119.056039 33 495ft 0kts

Navigation Log

Ident Type
Flight plan parsing failed, navigation log unavailable